sensor_id;sensor_type;location;lat;lon;timestamp;temperature;humidity
5415;DHT22;2730;51.512;7.504;2023-03-14T00:01:59;11.10;99.90
5415;DHT22;2730;51.512;7.504;2023-03-14T00:04:25;11.10;99.90
5415;DHT22;2730;51.512;7.504;2023-03-14T00:06:54;11.00;99.90
5415;DHT22;2730;51.512;7.504;2023-03-14T00:09:20;11.00;99.90
5415;DHT22;2730;51.512;7.504;2023-03-14T00:11:47;11.00;99.90
5415;DHT22;2730;51.512;7.504;2023-03-14T00:14:14;11.10;99.90
5415;DHT22;2730;51.512;7.504;2023-03-14T00:16:44;11.10;99.90
5415;DHT22;2730;51.512;7.504;2023-03-14T00:19:12;11.10;99.90
5415;DHT22;2730;51.512;7.504;2023-03-14T00:21:38;11.20;99.90
5415;DHT22;2730;51.512;7.504;2023-03-14T00:24:07;11.20;99.90
5415;DHT22;2730;51.512;7.504;2023-03-14T00:26:34;11.10;99.90
5415;DHT22;2730;51.512;7.504;2023-03-14T00:29:01;11.10;99.90
5415;DHT22;2730;51.512;7.504;2023-03-14T00:31:28;11.00;99.90
5415;DHT22;2730;51.512;7.504;2023-03-14T00:33:56;10.90;99.90
5415;DHT22;2730;51.512;7.504;2023-03-14T00:36:23;10.90;99.90
5415;DHT22;2730;51.512;7.504;2023-03-14T00:38:51;10.80;99.90
5415;DHT22;2730;51.512;7.504;2023-03-14T00:41:21;10.90;99.90
5415;DHT22;2730;51.512;7.504;2023-03-14T00:43:49;11.00;99.90
5415;DHT22;2730;51.512;7.504;2023-03-14T00:46:16;11.00;99.90
5415;DHT22;2730;51.512;7.504;2023-03-14T00:48:44;11.00;99.90
5415;DHT22;2730;51.512;7.504;2023-03-14T00:51:11;11.10;99.90
5415;DHT22;2730;51.512;7.504;2023-03-14T00:53:39;11.20;99.90
5415;DHT22;2730;51.512;7.504;2023-03-14T00:56:08;11.20;99.90
5415;DHT22;2730;51.512;7.504;2023-03-14T00:58:37;11.30;99.90
5415;DHT22;2730;51.512;7.504;2023-03-14T01:01:07;11.30;99.90
5415;DHT22;2730;51.512;7.504;2023-03-14T01:03:35;11.40;99.90
5415;DHT22;2730;51.512;7.504;2023-03-14T01:06:10;11.40;99.90
5415;DHT22;2730;51.512;7.504;2023-03-14T01:08:37;11.40;99.90
5415;DHT22;2730;51.512;7.504;2023-03-14T01:11:08;11.50;99.90
5415;DHT22;2730;51.512;7.504;2023-03-14T01:13:37;11.50;99.90
5415;DHT22;2730;51.512;7.504;2023-03-14T01:16:05;11.60;99.90
5415;DHT22;2730;51.512;7.504;2023-03-14T01:18:34;11.60;99.90
5415;DHT22;2730;51.512;7.504;2023-03-14T01:21:01;11.60;99.90
5415;DHT22;2730;51.512;7.504;2023-03-14T01:23:28;11.60;99.90
5415;DHT22;2730;51.512;7.504;2023-03-14T01:25:55;11.40;99.90
5415;DHT22;2730;51.512;7.504;2023-03-14T01:28:22;11.30;99.90
5415;DHT22;2730;51.512;7.504;2023-03-14T01:30:50;11.00;99.90
5415;DHT22;2730;51.512;7.504;2023-03-14T01:33:17;10.60;99.90
5415;DHT22;2730;51.512;7.504;2023-03-14T01:35:44;10.30;99.90
5415;DHT22;2730;51.512;7.504;2023-03-14T01:38:11;10.00;99.90
5415;DHT22;2730;51.512;7.504;2023-03-14T01:40:42;9.90;99.90
5415;DHT22;2730;51.512;7.504;2023-03-14T01:43:14;9.80;99.90
5415;DHT22;2730;51.512;7.504;2023-03-14T01:48:59;9.70;99.90
5415;DHT22;2730;51.512;7.504;2023-03-14T01:51:31;9.60;99.90
5415;DHT22;2730;51.512;7.504;2023-03-14T01:54:05;9.60;99.90
5415;DHT22;2730;51.512;7.504;2023-03-14T01:56:33;9.50;99.90
5415;DHT22;2730;51.512;7.504;2023-03-14T01:59:04;9.50;99.90
5415;DHT22;2730;51.512;7.504;2023-03-14T02:11:41;9.30;99.90
5415;DHT22;2730;51.512;7.504;2023-03-14T02:14:12;9.30;99.90
5415;DHT22;2730;51.512;7.504;2023-03-14T02:16:40;9.30;99.90
5415;DHT22;2730;51.512;7.504;2023-03-14T02:19:09;9.20;99.90
5415;DHT22;2730;51.512;7.504;2023-03-14T02:21:45;9.20;99.90
5415;DHT22;2730;51.512;7.504;2023-03-14T02:24:19;9.20;99.90
5415;DHT22;2730;51.512;7.504;2023-03-14T02:27:06;9.30;99.90
5415;DHT22;2730;51.512;7.504;2023-03-14T02:29:35;9.20;99.90
5415;DHT22;2730;51.512;7.504;2023-03-14T02:32:03;9.20;99.90
5415;DHT22;2730;51.512;7.504;2023-03-14T02:34:30;9.30;99.90
5415;DHT22;2730;51.512;7.504;2023-03-14T02:36:58;9.30;99.90
5415;DHT22;2730;51.512;7.504;2023-03-14T02:39:32;9.30;99.90
5415;DHT22;2730;51.512;7.504;2023-03-14T02:42:01;9.40;99.90
5415;DHT22;2730;51.512;7.504;2023-03-14T02:44:29;9.40;99.90
5415;DHT22;2730;51.512;7.504;2023-03-14T02:46:57;9.40;99.90
5415;DHT22;2730;51.512;7.504;2023-03-14T02:49:25;9.50;99.90
5415;DHT22;2730;51.512;7.504;2023-03-14T02:51:53;9.50;99.90
5415;DHT22;2730;51.512;7.504;2023-03-14T02:54:20;9.60;99.90
5415;DHT22;2730;51.512;7.504;2023-03-14T02:56:47;9.60;99.90
5415;DHT22;2730;51.512;7.504;2023-03-14T02:59:14;9.60;99.90
5415;DHT22;2730;51.512;7.504;2023-03-14T03:01:42;9.60;99.90
5415;DHT22;2730;51.512;7.504;2023-03-14T03:04:09;9.70;99.90
5415;DHT22;2730;51.512;7.504;2023-03-14T03:06:36;9.70;99.90
5415;DHT22;2730;51.512;7.504;2023-03-14T03:09:03;9.60;99.90
5415;DHT22;2730;51.512;7.504;2023-03-14T03:11:30;9.60;99.90
5415;DHT22;2730;51.512;7.504;2023-03-14T03:13:57;9.60;99.90
5415;DHT22;2730;51.512;7.504;2023-03-14T03:16:24;9.70;99.90
5415;DHT22;2730;51.512;7.504;2023-03-14T03:18:52;9.70;99.90
5415;DHT22;2730;51.512;7.504;2023-03-14T03:21:19;9.70;99.90
5415;DHT22;2730;51.512;7.504;2023-03-14T03:23:49;9.60;99.90
5415;DHT22;2730;51.512;7.504;2023-03-14T03:26:15;9.70;99.90
5415;DHT22;2730;51.512;7.504;2023-03-14T03:28:42;9.70;99.90
5415;DHT22;2730;51.512;7.504;2023-03-14T03:31:10;9.70;99.90
5415;DHT22;2730;51.512;7.504;2023-03-14T03:33:38;9.70;99.90
5415;DHT22;2730;51.512;7.504;2023-03-14T03:36:09;9.60;99.90
5415;DHT22;2730;51.512;7.504;2023-03-14T03:38:36;9.70;99.90
5415;DHT22;2730;51.512;7.504;2023-03-14T03:41:04;9.60;99.90
5415;DHT22;2730;51.512;7.504;2023-03-14T03:43:31;9.60;99.90
5415;DHT22;2730;51.512;7.504;2023-03-14T03:45:58;9.60;99.90
5415;DHT22;2730;51.512;7.504;2023-03-14T03:48:24;9.70;99.90
5415;DHT22;2730;51.512;7.504;2023-03-14T03:50:51;9.60;99.90
5415;DHT22;2730;51.512;7.504;2023-03-14T03:53:19;9.60;99.90
5415;DHT22;2730;51.512;7.504;2023-03-14T03:55:46;9.50;99.90
5415;DHT22;2730;51.512;7.504;2023-03-14T03:58:13;9.60;99.90
5415;DHT22;2730;51.512;7.504;2023-03-14T04:00:40;9.60;99.90
5415;DHT22;2730;51.512;7.504;2023-03-14T04:03:07;9.50;99.90
5415;DHT22;2730;51.512;7.504;2023-03-14T04:05:34;9.60;99.90
5415;DHT22;2730;51.512;7.504;2023-03-14T04:08:01;9.60;99.90
5415;DHT22;2730;51.512;7.504;2023-03-14T04:10:29;9.70;99.90
5415;DHT22;2730;51.512;7.504;2023-03-14T04:12:56;9.70;99.90
5415;DHT22;2730;51.512;7.504;2023-03-14T04:15:23;9.70;99.90
5415;DHT22;2730;51.512;7.504;2023-03-14T04:17:50;9.70;99.90
5415;DHT22;2730;51.512;7.504;2023-03-14T04:20:17;9.70;99.90
5415;DHT22;2730;51.512;7.504;2023-03-14T04:22:44;9.70;99.90
5415;DHT22;2730;51.512;7.504;2023-03-14T04:25:10;9.70;99.90
5415;DHT22;2730;51.512;7.504;2023-03-14T04:27:39;9.60;99.90
5415;DHT22;2730;51.512;7.504;2023-03-14T04:30:07;9.60;99.90
5415;DHT22;2730;51.512;7.504;2023-03-14T04:32:34;9.50;99.90
5415;DHT22;2730;51.512;7.504;2023-03-14T04:35:00;9.50;99.90
5415;DHT22;2730;51.512;7.504;2023-03-14T04:37:27;9.50;99.90
5415;DHT22;2730;51.512;7.504;2023-03-14T04:39:54;9.50;99.90
5415;DHT22;2730;51.512;7.504;2023-03-14T04:42:21;9.50;99.90
5415;DHT22;2730;51.512;7.504;2023-03-14T04:44:49;9.50;99.90
5415;DHT22;2730;51.512;7.504;2023-03-14T04:47:16;9.40;99.90
5415;DHT22;2730;51.512;7.504;2023-03-14T04:49:43;9.40;99.90
5415;DHT22;2730;51.512;7.504;2023-03-14T04:52:10;9.30;99.90
5415;DHT22;2730;51.512;7.504;2023-03-14T04:54:37;9.30;99.90
5415;DHT22;2730;51.512;7.504;2023-03-14T04:57:03;9.20;99.90
5415;DHT22;2730;51.512;7.504;2023-03-14T04:59:30;9.20;99.90
5415;DHT22;2730;51.512;7.504;2023-03-14T05:01:58;9.10;99.90
5415;DHT22;2730;51.512;7.504;2023-03-14T05:04:25;9.00;99.90
5415;DHT22;2730;51.512;7.504;2023-03-14T05:06:52;9.00;99.90
5415;DHT22;2730;51.512;7.504;2023-03-14T05:09:19;9.00;99.90
5415;DHT22;2730;51.512;7.504;2023-03-14T05:11:45;8.90;99.90
5415;DHT22;2730;51.512;7.504;2023-03-14T05:14:12;8.90;99.90
5415;DHT22;2730;51.512;7.504;2023-03-14T05:16:39;8.90;99.90
5415;DHT22;2730;51.512;7.504;2023-03-14T05:19:07;8.90;99.90
5415;DHT22;2730;51.512;7.504;2023-03-14T05:21:34;8.90;99.90
5415;DHT22;2730;51.512;7.504;2023-03-14T05:24:01;8.90;99.90
5415;DHT22;2730;51.512;7.504;2023-03-14T05:26:28;8.80;99.90
5415;DHT22;2730;51.512;7.504;2023-03-14T05:28:55;8.70;99.90
5415;DHT22;2730;51.512;7.504;2023-03-14T05:31:21;8.60;99.90
5415;DHT22;2730;51.512;7.504;2023-03-14T05:33:48;8.60;99.90
5415;DHT22;2730;51.512;7.504;2023-03-14T05:36:16;8.50;99.90
5415;DHT22;2730;51.512;7.504;2023-03-14T05:38:43;8.40;99.90
5415;DHT22;2730;51.512;7.504;2023-03-14T05:41:10;8.40;99.90
5415;DHT22;2730;51.512;7.504;2023-03-14T05:43:37;8.30;99.90
5415;DHT22;2730;51.512;7.504;2023-03-14T05:46:05;8.40;99.90
5415;DHT22;2730;51.512;7.504;2023-03-14T05:48:32;8.30;99.90
5415;DHT22;2730;51.512;7.504;2023-03-14T05:50:59;8.30;99.90
5415;DHT22;2730;51.512;7.504;2023-03-14T05:53:27;8.40;99.90
5415;DHT22;2730;51.512;7.504;2023-03-14T05:55:55;8.40;99.90
5415;DHT22;2730;51.512;7.504;2023-03-14T05:58:23;8.30;99.90
5415;DHT22;2730;51.512;7.504;2023-03-14T06:00:50;8.30;99.90
5415;DHT22;2730;51.512;7.504;2023-03-14T06:03:17;8.30;99.90
5415;DHT22;2730;51.512;7.504;2023-03-14T06:05:44;8.40;99.90
5415;DHT22;2730;51.512;7.504;2023-03-14T06:08:11;8.40;99.90
5415;DHT22;2730;51.512;7.504;2023-03-14T06:10:39;8.40;99.90
5415;DHT22;2730;51.512;7.504;2023-03-14T06:13:06;8.50;99.90
5415;DHT22;2730;51.512;7.504;2023-03-14T06:15:33;8.50;99.90
5415;DHT22;2730;51.512;7.504;2023-03-14T06:18:01;8.60;99.90
5415;DHT22;2730;51.512;7.504;2023-03-14T06:20:28;8.70;99.90
5415;DHT22;2730;51.512;7.504;2023-03-14T06:22:55;8.70;99.90
5415;DHT22;2730;51.512;7.504;2023-03-14T06:25:22;8.80;99.90
5415;DHT22;2730;51.512;7.504;2023-03-14T06:27:50;8.90;99.90
5415;DHT22;2730;51.512;7.504;2023-03-14T06:30:17;9.00;99.90
5415;DHT22;2730;51.512;7.504;2023-03-14T06:32:44;9.00;99.90
5415;DHT22;2730;51.512;7.504;2023-03-14T06:35:10;9.10;99.90
5415;DHT22;2730;51.512;7.504;2023-03-14T06:37:38;9.10;99.90
5415;DHT22;2730;51.512;7.504;2023-03-14T06:40:06;9.10;99.90
5415;DHT22;2730;51.512;7.504;2023-03-14T06:42:33;9.10;99.90
5415;DHT22;2730;51.512;7.504;2023-03-14T06:45:02;9.30;99.90
5415;DHT22;2730;51.512;7.504;2023-03-14T06:47:29;9.30;99.90
5415;DHT22;2730;51.512;7.504;2023-03-14T06:49:56;9.30;99.90
5415;DHT22;2730;51.512;7.504;2023-03-14T06:52:22;9.30;99.90
5415;DHT22;2730;51.512;7.504;2023-03-14T06:54:49;9.30;99.90
5415;DHT22;2730;51.512;7.504;2023-03-14T06:57:16;9.40;99.90
5415;DHT22;2730;51.512;7.504;2023-03-14T06:59:43;9.40;99.90
5415;DHT22;2730;51.512;7.504;2023-03-14T07:02:11;9.40;99.90
5415;DHT22;2730;51.512;7.504;2023-03-14T07:04:38;9.40;99.90
5415;DHT22;2730;51.512;7.504;2023-03-14T07:07:06;9.50;99.90
5415;DHT22;2730;51.512;7.504;2023-03-14T07:09:33;9.60;99.90
5415;DHT22;2730;51.512;7.504;2023-03-14T07:12:00;9.50;99.90
5415;DHT22;2730;51.512;7.504;2023-03-14T07:14:28;9.60;99.90
5415;DHT22;2730;51.512;7.504;2023-03-14T07:16:55;9.60;99.90
5415;DHT22;2730;51.512;7.504;2023-03-14T07:19:24;9.60;99.90
5415;DHT22;2730;51.512;7.504;2023-03-14T07:21:51;9.60;99.90
5415;DHT22;2730;51.512;7.504;2023-03-14T07:24:17;9.50;99.90
5415;DHT22;2730;51.512;7.504;2023-03-14T07:26:44;9.60;99.90
5415;DHT22;2730;51.512;7.504;2023-03-14T07:29:11;9.70;99.90
5415;DHT22;2730;51.512;7.504;2023-03-14T07:31:38;9.80;99.90
5415;DHT22;2730;51.512;7.504;2023-03-14T07:34:05;9.70;99.90
5415;DHT22;2730;51.512;7.504;2023-03-14T07:36:33;9.80;99.90
5415;DHT22;2730;51.512;7.504;2023-03-14T07:39:00;9.80;99.90
5415;DHT22;2730;51.512;7.504;2023-03-14T07:41:26;9.90;99.90
5415;DHT22;2730;51.512;7.504;2023-03-14T07:43:53;10.00;99.90
5415;DHT22;2730;51.512;7.504;2023-03-14T07:46:20;10.00;99.90
5415;DHT22;2730;51.512;7.504;2023-03-14T07:48:47;10.10;99.90
5415;DHT22;2730;51.512;7.504;2023-03-14T07:51:13;10.20;99.90
5415;DHT22;2730;51.512;7.504;2023-03-14T07:53:42;10.10;99.90
5415;DHT22;2730;51.512;7.504;2023-03-14T07:56:09;10.20;99.90
5415;DHT22;2730;51.512;7.504;2023-03-14T07:58:36;10.20;99.90
5415;DHT22;2730;51.512;7.504;2023-03-14T08:01:03;10.30;99.90
5415;DHT22;2730;51.512;7.504;2023-03-14T08:03:30;10.30;99.90
5415;DHT22;2730;51.512;7.504;2023-03-14T08:05:57;10.30;99.90
5415;DHT22;2730;51.512;7.504;2023-03-14T08:08:24;10.40;99.90
5415;DHT22;2730;51.512;7.504;2023-03-14T08:10:52;10.40;99.90
5415;DHT22;2730;51.512;7.504;2023-03-14T08:13:19;10.50;99.90
5415;DHT22;2730;51.512;7.504;2023-03-14T08:15:47;10.40;99.90
5415;DHT22;2730;51.512;7.504;2023-03-14T08:18:15;10.40;99.90
5415;DHT22;2730;51.512;7.504;2023-03-14T08:20:41;10.30;99.90
5415;DHT22;2730;51.512;7.504;2023-03-14T08:23:08;10.30;99.90
5415;DHT22;2730;51.512;7.504;2023-03-14T08:25:35;10.30;99.90
5415;DHT22;2730;51.512;7.504;2023-03-14T08:28:03;10.30;99.90
5415;DHT22;2730;51.512;7.504;2023-03-14T08:30:30;10.30;99.90
5415;DHT22;2730;51.512;7.504;2023-03-14T08:32:58;10.30;99.90
5415;DHT22;2730;51.512;7.504;2023-03-14T08:35:25;10.30;99.90
5415;DHT22;2730;51.512;7.504;2023-03-14T08:37:52;10.40;99.90
5415;DHT22;2730;51.512;7.504;2023-03-14T08:40:19;10.40;99.90
5415;DHT22;2730;51.512;7.504;2023-03-14T08:42:46;10.50;99.90
5415;DHT22;2730;51.512;7.504;2023-03-14T08:45:15;10.30;99.90
5415;DHT22;2730;51.512;7.504;2023-03-14T08:47:43;10.30;99.90
5415;DHT22;2730;51.512;7.504;2023-03-14T08:50:11;10.40;99.90
5415;DHT22;2730;51.512;7.504;2023-03-14T08:52:38;10.50;99.90
5415;DHT22;2730;51.512;7.504;2023-03-14T08:55:07;10.40;99.90
5415;DHT22;2730;51.512;7.504;2023-03-14T08:57:34;10.40;99.90
5415;DHT22;2730;51.512;7.504;2023-03-14T09:00:04;10.40;99.90
5415;DHT22;2730;51.512;7.504;2023-03-14T09:02:35;10.50;99.90
5415;DHT22;2730;51.512;7.504;2023-03-14T09:05:03;10.50;99.90
5415;DHT22;2730;51.512;7.504;2023-03-14T09:07:29;10.50;99.90
5415;DHT22;2730;51.512;7.504;2023-03-14T09:09:56;10.60;99.90
5415;DHT22;2730;51.512;7.504;2023-03-14T09:12:23;10.80;99.90
5415;DHT22;2730;51.512;7.504;2023-03-14T09:14:50;10.90;99.90
5415;DHT22;2730;51.512;7.504;2023-03-14T09:17:17;10.90;99.90
5415;DHT22;2730;51.512;7.504;2023-03-14T09:19:45;10.90;99.90
5415;DHT22;2730;51.512;7.504;2023-03-14T09:22:12;10.80;99.90
5415;DHT22;2730;51.512;7.504;2023-03-14T09:24:40;10.70;99.90
5415;DHT22;2730;51.512;7.504;2023-03-14T09:27:06;10.70;99.90
5415;DHT22;2730;51.512;7.504;2023-03-14T09:29:34;10.60;99.90
5415;DHT22;2730;51.512;7.504;2023-03-14T09:32:01;10.50;99.90
5415;DHT22;2730;51.512;7.504;2023-03-14T09:34:29;10.40;99.90
5415;DHT22;2730;51.512;7.504;2023-03-14T09:36:57;10.30;99.90
5415;DHT22;2730;51.512;7.504;2023-03-14T09:39:24;10.20;99.90
5415;DHT22;2730;51.512;7.504;2023-03-14T09:41:52;10.20;99.90
5415;DHT22;2730;51.512;7.504;2023-03-14T09:44:24;10.20;99.90
5415;DHT22;2730;51.512;7.504;2023-03-14T09:46:53;10.20;99.90
5415;DHT22;2730;51.512;7.504;2023-03-14T09:49:24;10.20;99.90
5415;DHT22;2730;51.512;7.504;2023-03-14T09:51:53;10.30;99.90
5415;DHT22;2730;51.512;7.504;2023-03-14T09:54:34;10.40;99.90
5415;DHT22;2730;51.512;7.504;2023-03-14T09:57:02;10.40;99.90
5415;DHT22;2730;51.512;7.504;2023-03-14T09:59:30;10.30;99.90
5415;DHT22;2730;51.512;7.504;2023-03-14T10:01:58;9.90;99.90
5415;DHT22;2730;51.512;7.504;2023-03-14T10:04:28;9.70;99.90
5415;DHT22;2730;51.512;7.504;2023-03-14T10:06:55;9.50;99.90
5415;DHT22;2730;51.512;7.504;2023-03-14T10:09:23;9.40;99.90
5415;DHT22;2730;51.512;7.504;2023-03-14T10:11:54;9.10;99.90
5415;DHT22;2730;51.512;7.504;2023-03-14T10:14:32;8.80;99.90
5415;DHT22;2730;51.512;7.504;2023-03-14T10:17:07;8.70;99.90
5415;DHT22;2730;51.512;7.504;2023-03-14T10:19:35;8.70;99.90
5415;DHT22;2730;51.512;7.504;2023-03-14T10:22:03;8.70;99.90
5415;DHT22;2730;51.512;7.504;2023-03-14T10:24:32;8.60;99.90
5415;DHT22;2730;51.512;7.504;2023-03-14T10:27:02;8.60;99.90
5415;DHT22;2730;51.512;7.504;2023-03-14T10:29:30;8.60;99.90
5415;DHT22;2730;51.512;7.504;2023-03-14T10:31:59;8.60;99.90
5415;DHT22;2730;51.512;7.504;2023-03-14T10:34:29;8.50;99.90
5415;DHT22;2730;51.512;7.504;2023-03-14T10:36:58;8.40;99.90
5415;DHT22;2730;51.512;7.504;2023-03-14T10:39:29;8.30;99.90
5415;DHT22;2730;51.512;7.504;2023-03-14T10:42:04;8.10;99.90
5415;DHT22;2730;51.512;7.504;2023-03-14T10:44:32;7.90;99.90
5415;DHT22;2730;51.512;7.504;2023-03-14T10:47:02;7.70;99.90
5415;DHT22;2730;51.512;7.504;2023-03-14T10:49:31;7.70;99.90
5415;DHT22;2730;51.512;7.504;2023-03-14T10:52:02;7.70;99.90
5415;DHT22;2730;51.512;7.504;2023-03-14T10:54:38;7.70;99.90
5415;DHT22;2730;51.512;7.504;2023-03-14T10:57:07;7.80;99.90
5415;DHT22;2730;51.512;7.504;2023-03-14T10:59:36;7.70;99.90
5415;DHT22;2730;51.512;7.504;2023-03-14T11:02:10;7.70;99.90
5415;DHT22;2730;51.512;7.504;2023-03-14T11:04:56;7.70;99.90
5415;DHT22;2730;51.512;7.504;2023-03-14T11:07:34;7.60;99.90
5415;DHT22;2730;51.512;7.504;2023-03-14T11:10:08;7.50;99.90
5415;DHT22;2730;51.512;7.504;2023-03-14T11:12:45;7.50;99.90
5415;DHT22;2730;51.512;7.504;2023-03-14T11:15:20;7.50;99.90
5415;DHT22;2730;51.512;7.504;2023-03-14T11:17:55;7.40;99.90
5415;DHT22;2730;51.512;7.504;2023-03-14T11:20:33;7.30;99.90
5415;DHT22;2730;51.512;7.504;2023-03-14T11:23:07;7.20;99.90
5415;DHT22;2730;51.512;7.504;2023-03-14T11:25:40;7.10;99.90
5415;DHT22;2730;51.512;7.504;2023-03-14T11:28:17;7.10;99.90
5415;DHT22;2730;51.512;7.504;2023-03-14T11:30:50;7.00;99.90
5415;DHT22;2730;51.512;7.504;2023-03-14T11:33:21;7.00;99.90
5415;DHT22;2730;51.512;7.504;2023-03-14T11:35:53;7.00;99.90
5415;DHT22;2730;51.512;7.504;2023-03-14T11:38:29;6.80;99.90
5415;DHT22;2730;51.512;7.504;2023-03-14T11:40:58;6.70;99.90
5415;DHT22;2730;51.512;7.504;2023-03-14T11:43:29;6.80;99.90
5415;DHT22;2730;51.512;7.504;2023-03-14T11:46:03;6.90;99.90
5415;DHT22;2730;51.512;7.504;2023-03-14T11:48:37;7.00;99.90
5415;DHT22;2730;51.512;7.504;2023-03-14T11:51:09;7.00;99.90
5415;DHT22;2730;51.512;7.504;2023-03-14T11:53:46;6.90;99.90
5415;DHT22;2730;51.512;7.504;2023-03-14T11:56:19;6.80;99.90
5415;DHT22;2730;51.512;7.504;2023-03-14T11:58:57;6.60;99.90
5415;DHT22;2730;51.512;7.504;2023-03-14T12:01:45;6.50;99.90
5415;DHT22;2730;51.512;7.504;2023-03-14T12:04:23;6.70;99.90
5415;DHT22;2730;51.512;7.504;2023-03-14T12:06:55;6.80;99.90
5415;DHT22;2730;51.512;7.504;2023-03-14T12:09:23;6.90;99.90
5415;DHT22;2730;51.512;7.504;2023-03-14T12:11:53;6.70;99.90
5415;DHT22;2730;51.512;7.504;2023-03-14T12:14:25;6.60;99.90
5415;DHT22;2730;51.512;7.504;2023-03-14T12:16:54;6.40;99.90
5415;DHT22;2730;51.512;7.504;2023-03-14T12:19:33;6.20;99.90
5415;DHT22;2730;51.512;7.504;2023-03-14T12:22:23;6.10;99.90
5415;DHT22;2730;51.512;7.504;2023-03-14T12:24:54;6.30;99.90
5415;DHT22;2730;51.512;7.504;2023-03-14T12:27:41;6.50;99.90
5415;DHT22;2730;51.512;7.504;2023-03-14T12:30:17;6.70;99.90
5415;DHT22;2730;51.512;7.504;2023-03-14T12:36:03;6.80;99.90
5415;DHT22;2730;51.512;7.504;2023-03-14T12:38:59;6.90;99.90
5415;DHT22;2730;51.512;7.504;2023-03-14T12:41:34;7.20;99.90
5415;DHT22;2730;51.512;7.504;2023-03-14T12:47:01;7.30;99.90
5415;DHT22;2730;51.512;7.504;2023-03-14T12:49:41;7.50;99.90
5415;DHT22;2730;51.512;7.504;2023-03-14T12:52:14;7.50;99.90
5415;DHT22;2730;51.512;7.504;2023-03-14T12:54:46;7.50;99.90
5415;DHT22;2730;51.512;7.504;2023-03-14T12:57:25;7.60;99.90
5415;DHT22;2730;51.512;7.504;2023-03-14T12:59:56;7.50;99.90
5415;DHT22;2730;51.512;7.504;2023-03-14T13:02:27;7.50;99.90
5415;DHT22;2730;51.512;7.504;2023-03-14T13:05:02;7.50;99.90
5415;DHT22;2730;51.512;7.504;2023-03-14T13:07:33;7.50;99.90
5415;DHT22;2730;51.512;7.504;2023-03-14T13:10:04;7.50;99.90
5415;DHT22;2730;51.512;7.504;2023-03-14T13:12:38;7.30;99.90
5415;DHT22;2730;51.512;7.504;2023-03-14T13:15:18;7.20;99.90
5415;DHT22;2730;51.512;7.504;2023-03-14T13:17:49;6.30;99.90
5415;DHT22;2730;51.512;7.504;2023-03-14T13:20:20;5.70;99.90
5415;DHT22;2730;51.512;7.504;2023-03-14T13:22:49;5.40;99.90
5415;DHT22;2730;51.512;7.504;2023-03-14T13:25:16;5.30;99.90
5415;DHT22;2730;51.512;7.504;2023-03-14T13:27:43;5.40;99.90
5415;DHT22;2730;51.512;7.504;2023-03-14T13:30:20;5.60;99.90
5415;DHT22;2730;51.512;7.504;2023-03-14T13:32:50;5.70;99.90
5415;DHT22;2730;51.512;7.504;2023-03-14T13:35:20;5.80;99.90
5415;DHT22;2730;51.512;7.504;2023-03-14T13:37:51;5.90;99.90
5415;DHT22;2730;51.512;7.504;2023-03-14T13:40:20;6.00;99.90
5415;DHT22;2730;51.512;7.504;2023-03-14T13:42:47;6.10;99.90
5415;DHT22;2730;51.512;7.504;2023-03-14T13:45:14;6.20;99.90
5415;DHT22;2730;51.512;7.504;2023-03-14T13:47:41;6.10;99.90
5415;DHT22;2730;51.512;7.504;2023-03-14T13:50:16;6.20;99.90
5415;DHT22;2730;51.512;7.504;2023-03-14T13:52:44;6.20;99.90
5415;DHT22;2730;51.512;7.504;2023-03-14T13:55:15;6.40;99.90
5415;DHT22;2730;51.512;7.504;2023-03-14T13:57:43;6.50;99.90
5415;DHT22;2730;51.512;7.504;2023-03-14T14:00:18;6.50;99.90
5415;DHT22;2730;51.512;7.504;2023-03-14T14:02:45;6.70;99.90
5415;DHT22;2730;51.512;7.504;2023-03-14T14:05:14;6.70;99.90
5415;DHT22;2730;51.512;7.504;2023-03-14T14:07:44;6.80;99.90
5415;DHT22;2730;51.512;7.504;2023-03-14T14:10:13;6.80;99.90
5415;DHT22;2730;51.512;7.504;2023-03-14T14:12:42;7.00;99.90
5415;DHT22;2730;51.512;7.504;2023-03-14T14:15:13;7.10;99.90
5415;DHT22;2730;51.512;7.504;2023-03-14T14:17:43;7.20;99.90
5415;DHT22;2730;51.512;7.504;2023-03-14T14:20:16;7.30;99.90
5415;DHT22;2730;51.512;7.504;2023-03-14T14:22:46;7.50;99.90
5415;DHT22;2730;51.512;7.504;2023-03-14T14:25:14;7.50;99.90
5415;DHT22;2730;51.512;7.504;2023-03-14T14:27:42;7.50;99.90
5415;DHT22;2730;51.512;7.504;2023-03-14T14:30:26;7.60;99.90
5415;DHT22;2730;51.512;7.504;2023-03-14T14:33:11;7.60;99.90
5415;DHT22;2730;51.512;7.504;2023-03-14T14:35:38;7.50;99.90
5415;DHT22;2730;51.512;7.504;2023-03-14T14:38:12;7.50;99.90
5415;DHT22;2730;51.512;7.504;2023-03-14T14:40:47;7.50;99.90
5415;DHT22;2730;51.512;7.504;2023-03-14T14:43:18;7.60;99.90
5415;DHT22;2730;51.512;7.504;2023-03-14T14:45:48;7.70;99.90
5415;DHT22;2730;51.512;7.504;2023-03-14T14:48:19;7.80;99.90
5415;DHT22;2730;51.512;7.504;2023-03-14T14:50:57;7.70;99.90
5415;DHT22;2730;51.512;7.504;2023-03-14T14:53:30;7.80;99.90
5415;DHT22;2730;51.512;7.504;2023-03-14T14:55:58;7.90;99.90
5415;DHT22;2730;51.512;7.504;2023-03-14T14:58:28;7.90;99.90
5415;DHT22;2730;51.512;7.504;2023-03-14T15:01:02;8.00;99.90
5415;DHT22;2730;51.512;7.504;2023-03-14T15:03:31;8.00;99.90
5415;DHT22;2730;51.512;7.504;2023-03-14T15:05:59;7.90;99.90
5415;DHT22;2730;51.512;7.504;2023-03-14T15:08:27;7.90;99.90
5415;DHT22;2730;51.512;7.504;2023-03-14T15:10:54;8.00;99.90
5415;DHT22;2730;51.512;7.504;2023-03-14T15:13:21;8.00;99.90
5415;DHT22;2730;51.512;7.504;2023-03-14T15:15:50;8.00;99.90
5415;DHT22;2730;51.512;7.504;2023-03-14T15:18:22;8.00;99.90
5415;DHT22;2730;51.512;7.504;2023-03-14T15:20:49;8.00;99.90
5415;DHT22;2730;51.512;7.504;2023-03-14T15:23:18;8.00;99.90
5415;DHT22;2730;51.512;7.504;2023-03-14T15:25:47;7.90;99.90
5415;DHT22;2730;51.512;7.504;2023-03-14T15:28:17;7.80;99.90
5415;DHT22;2730;51.512;7.504;2023-03-14T15:30:46;7.70;99.90
5415;DHT22;2730;51.512;7.504;2023-03-14T15:33:13;7.60;99.90
5415;DHT22;2730;51.512;7.504;2023-03-14T15:35:40;7.60;99.90
5415;DHT22;2730;51.512;7.504;2023-03-14T15:38:10;7.60;99.90
5415;DHT22;2730;51.512;7.504;2023-03-14T15:40:38;7.50;99.90
5415;DHT22;2730;51.512;7.504;2023-03-14T15:43:06;7.40;99.90
5415;DHT22;2730;51.512;7.504;2023-03-14T15:45:33;7.20;99.90
5415;DHT22;2730;51.512;7.504;2023-03-14T15:48:25;7.10;99.90
5415;DHT22;2730;51.512;7.504;2023-03-14T15:50:52;7.00;99.90
5415;DHT22;2730;51.512;7.504;2023-03-14T15:53:18;7.00;99.90
5415;DHT22;2730;51.512;7.504;2023-03-14T15:55:45;7.00;99.90
5415;DHT22;2730;51.512;7.504;2023-03-14T15:58:16;7.00;99.90
5415;DHT22;2730;51.512;7.504;2023-03-14T16:00:43;7.10;99.90
5415;DHT22;2730;51.512;7.504;2023-03-14T16:03:10;7.20;99.90
5415;DHT22;2730;51.512;7.504;2023-03-14T16:05:37;7.30;99.90
5415;DHT22;2730;51.512;7.504;2023-03-14T16:08:04;7.30;99.90
5415;DHT22;2730;51.512;7.504;2023-03-14T16:10:31;7.20;99.90
5415;DHT22;2730;51.512;7.504;2023-03-14T16:12:58;7.20;99.90
5415;DHT22;2730;51.512;7.504;2023-03-14T16:15:26;7.10;99.90
5415;DHT22;2730;51.512;7.504;2023-03-14T16:17:54;6.90;99.90
5415;DHT22;2730;51.512;7.504;2023-03-14T16:20:21;6.90;99.90
5415;DHT22;2730;51.512;7.504;2023-03-14T16:22:48;6.80;99.90
5415;DHT22;2730;51.512;7.504;2023-03-14T16:25:15;6.80;99.90
5415;DHT22;2730;51.512;7.504;2023-03-14T16:27:43;6.80;99.90
5415;DHT22;2730;51.512;7.504;2023-03-14T16:30:11;6.80;99.90
5415;DHT22;2730;51.512;7.504;2023-03-14T16:32:40;6.80;99.90
5415;DHT22;2730;51.512;7.504;2023-03-14T16:35:07;6.80;99.90
5415;DHT22;2730;51.512;7.504;2023-03-14T16:37:34;6.90;99.90
5415;DHT22;2730;51.512;7.504;2023-03-14T16:40:01;6.80;99.90
5415;DHT22;2730;51.512;7.504;2023-03-14T16:42:27;6.70;99.90
5415;DHT22;2730;51.512;7.504;2023-03-14T16:44:54;6.60;99.90
5415;DHT22;2730;51.512;7.504;2023-03-14T16:47:21;6.50;99.90